Time;durP1;ratioP1;P1;durP2;ratioP2;P2;SDS_P1;SDS_P2;PMS_P1;PMS_P2;Temp;Humidity;BMP_temperature;BMP_pressure;BME280_temperature;BME280_humidity;BME280_pressure;Samples;Min_cycle;Max_cycle;Signal;HPM_P1;HPM_P2
2022/07/12 00:01:49;;;;;;;6.82;2.08;;;;;;;21.13;100.00;98739.41;5134513;27;20034;-96
2022/07/12 00:04:18;;;;;;;8.68;2.33;;;;;;;21.09;100.00;98739.66;5132376;27;20024;-96
2022/07/12 00:06:45;;;;;;;7.88;1.90;;;;;;;20.91;100.00;98734.38;5089894;28;20030;-96
2022/07/12 00:09:21;;;;;;;;;;;;;;;;;;;;;
2022/07/12 00:11:48;;;;;;;6.65;2.05;;;;;;;20.91;100.00;98744.97;5090249;28;20044;-96
2022/07/12 00:14:17;;;;;;;7.20;2.05;;;;;;;21.00;100.00;98743.63;5089287;28;20039;-96
2022/07/12 00:16:45;;;;;;;10.93;2.60;;;;;;;21.00;100.00;98740.97;5096329;28;20024;-96
2022/07/12 00:19:10;;;;;;;8.15;2.22;;;;;;;20.93;100.00;98737.81;5093259;28;20139;-96
2022/07/12 00:21:39;;;;;;;8.15;2.20;;;;;;;21.01;100.00;98744.50;5095291;28;20072;-96
2022/07/12 00:24:05;;;;;;;9.02;2.05;;;;;;;21.03;100.00;98748.78;5089281;28;20039;-96
2022/07/12 00:26:31;;;;;;;7.85;2.10;;;;;;;21.03;100.00;98756.75;5115591;27;20036;-96
2022/07/12 00:29:07;;;;;;;8.27;2.00;;;;;;;21.08;100.00;98753.84;5090308;28;20023;-96
2022/07/12 00:31:46;;;;;;;8.77;2.30;;;;;;;20.90;100.00;98750.34;5082748;28;20100;-96
2022/07/12 00:34:15;;;;;;;8.57;1.95;;;;;;;20.91;100.00;98762.69;5119088;27;20020;-96
2022/07/12 00:36:40;;;;;;;7.22;2.20;;;;;;;20.95;100.00;98756.28;5090585;28;20064;-96
2022/07/12 00:39:09;;;;;;;9.38;2.20;;;;;;;20.78;100.00;98752.69;5088354;28;20058;-96
2022/07/12 00:41:42;;;;;;;8.55;2.17;;;;;;;20.87;100.00;98740.75;5095753;28;20078;-95
2022/07/12 00:44:13;;;;;;;7.13;2.10;;;;;;;21.07;100.00;98747.69;5100125;28;20027;-95
2022/07/12 00:46:39;;;;;;;7.28;2.40;;;;;;;20.90;100.00;98753.84;5081378;28;20540;-96
2022/07/12 00:49:05;;;;;;;7.75;2.20;;;;;;;20.91;100.00;98752.94;5076961;28;20036;-96
2022/07/12 00:51:32;;;;;;;8.23;2.00;;;;;;;20.80;100.00;98742.88;5083902;28;20047;-96
2022/07/12 00:53:59;;;;;;;7.90;2.38;;;;;;;20.83;100.00;98733.06;5096509;28;20064;-94
2022/07/12 00:56:25;;;;;;;8.82;2.50;;;;;;;21.02;100.00;98717.06;5090576;28;20028;-96
2022/07/12 00:58:51;;;;;;;9.45;2.15;;;;;;;20.86;100.00;98712.53;5093436;28;20051;-95
2022/07/12 01:01:16;;;;;;;7.88;2.45;;;;;;;20.95;100.00;98712.06;5092871;28;20075;-94
2022/07/12 01:04:18;;;;;;;5.70;1.75;;;;;;;20.86;100.00;98722.28;5096257;28;20456;-95
2022/07/12 01:06:43;;;;;;;6.13;1.90;;;;;;;20.90;100.00;98716.75;5089539;28;20206;-95
2022/07/12 01:09:12;;;;;;;7.93;2.30;;;;;;;20.90;100.00;98713.25;5093122;28;20447;-96
2022/07/12 01:11:40;;;;;;;6.45;2.08;;;;;;;21.00;100.00;98709.16;5090882;28;20385;-95
2022/07/12 01:14:10;;;;;;;8.63;2.05;;;;;;;20.91;100.00;98715.81;5098071;28;20037;-95
2022/07/12 01:16:40;;;;;;;8.88;2.10;;;;;;;20.84;100.00;98713.56;5098976;28;20024;-96
2022/07/12 01:19:07;;;;;;;6.93;2.38;;;;;;;20.86;100.00;98725.78;5117848;27;20023;-96
2022/07/12 01:21:43;;;;;;;11.15;2.15;;;;;;;20.90;100.00;98718.53;5082949;28;20039;-96
2022/07/12 01:24:13;;;;;;;7.43;2.10;;;;;;;20.90;100.00;98729.16;5083840;28;20027;-95
2022/07/12 01:26:38;;;;;;;7.85;2.05;;;;;;;20.91;100.00;98733.53;5117907;27;20078;-95
2022/07/12 01:29:06;;;;;;;7.25;2.05;;;;;;;20.70;100.00;98719.59;5091923;28;20028;-96
2022/07/12 01:31:34;;;;;;;6.95;1.90;;;;;;;20.86;100.00;98724.94;5090808;28;20040;-95
2022/07/12 01:34:00;;;;;;;8.57;2.17;;;;;;;20.88;100.00;98715.97;5120589;27;20051;-95
2022/07/12 01:36:26;;;;;;;8.02;2.10;;;;;;;20.80;100.00;98708.41;5091493;28;20047;-95
2022/07/12 01:38:52;;;;;;;8.07;2.00;;;;;;;20.84;100.00;98708.28;5090650;28;20023;-95
2022/07/12 01:41:18;;;;;;;7.65;2.10;;;;;;;20.75;100.00;98720.19;5091922;28;20028;-95
2022/07/12 01:43:43;;;;;;;8.77;2.17;;;;;;;20.78;100.00;98710.31;5083535;28;20028;-95
2022/07/12 01:46:09;;;;;;;7.00;1.98;;;;;;;20.71;100.00;98718.63;5089061;28;20085;-95
2022/07/12 01:48:34;;;;;;;6.70;2.10;;;;;;;20.63;100.00;98719.84;5086582;28;20487;-95
2022/07/12 01:51:00;;;;;;;6.95;2.33;;;;;;;20.69;100.00;98716.06;5104738;27;20031;-95
2022/07/12 01:53:26;;;;;;;9.65;2.10;;;;;;;20.62;100.00;98717.28;5086802;28;20551;-96
2022/07/12 01:55:52;;;;;;;7.03;1.90;;;;;;;20.56;100.00;98707.84;5089586;28;20051;-96
2022/07/12 01:58:19;;;;;;;8.45;2.33;;;;;;;20.50;100.00;98715.25;5096882;28;20389;-95
2022/07/12 02:00:50;;;;;;;9.18;2.35;;;;;;;20.49;100.00;98719.69;5089057;28;20088;-96
2022/07/12 02:03:20;;;;;;;7.95;2.20;;;;;;;20.41;100.00;98728.03;5084751;28;20032;-95
2022/07/12 02:05:46;;;;;;;7.63;2.10;;;;;;;20.20;100.00;98732.59;5089813;28;20032;-96
2022/07/12 02:08:15;;;;;;;6.82;2.00;;;;;;;20.28;100.00;98742.81;5090768;28;20039;-95
2022/07/12 02:10:42;;;;;;;7.75;2.00;;;;;;;20.28;100.00;98745.47;5088334;28;20086;-95
2022/07/12 02:13:08;;;;;;;7.05;1.90;;;;;;;20.13;100.00;98726.72;5089034;28;20024;-95
2022/07/12 02:15:35;;;;;;;7.35;2.10;;;;;;;20.17;100.00;98739.84;5108479;27;20070;-96
2022/07/12 02:18:00;;;;;;;5.72;2.08;;;;;;;20.23;100.00;98736.88;5087871;28;20024;-96
2022/07/12 02:20:26;;;;;;;8.45;1.98;;;;;;;20.20;100.00;98737.88;5090076;28;20035;-96
2022/07/12 02:22:51;;;;;;;8.00;2.25;;;;;;;20.24;100.00;98731.50;5088478;28;20031;-95
2022/07/12 02:25:17;;;;;;;6.85;2.25;;;;;;;20.48;100.00;98730.38;5087828;28;20024;-96
2022/07/12 02:27:43;;;;;;;5.80;2.03;;;;;;;20.28;100.00;98729.59;5082419;28;20106;-96
2022/07/12 02:30:10;;;;;;;7.55;2.25;;;;;;;20.35;100.00;98744.22;5085004;28;20123;-96
2022/07/12 02:32:39;;;;;;;6.72;2.28;;;;;;;20.27;100.00;98739.28;5080405;28;20032;-96
2022/07/12 02:35:05;;;;;;;7.15;2.30;;;;;;;20.19;100.00;98740.63;5085671;28;20104;-96
2022/07/12 02:37:31;;;;;;;7.22;1.90;;;;;;;20.24;100.00;98730.66;5087063;28;20046;-96
2022/07/12 02:42:41;;;;;;;7.43;2.08;;;;;;;20.18;100.00;98739.78;5083125;28;20034;-94
2022/07/12 02:45:07;;;;;;;9.27;2.40;;;;;;;20.18;100.00;98742.41;5082369;28;20151;-96
2022/07/12 02:47:35;;;;;;;6.97;2.10;;;;;;;20.28;100.00;98735.72;5082808;28;20031;-95
2022/07/12 02:50:01;;;;;;;8.02;2.30;;;;;;;20.45;100.00;98729.59;5083123;28;20071;-96
2022/07/12 02:52:27;;;;;;;7.28;2.13;;;;;;;20.30;100.00;98719.75;5086795;28;20119;-96
2022/07/12 02:54:52;;;;;;;6.68;1.85;;;;;;;20.38;100.00;98722.88;5087971;28;20578;-96
2022/07/12 02:57:18;;;;;;;9.23;2.35;;;;;;;20.19;100.00;98716.78;5080179;28;20025;-96
2022/07/12 02:59:44;;;;;;;7.60;2.20;;;;;;;20.23;100.00;98707.75;5081259;28;20496;-96
2022/07/12 03:02:09;;;;;;;7.43;2.03;;;;;;;20.25;100.00;98705.88;5072754;28;20120;-96
2022/07/12 03:04:35;;;;;;;10.13;2.20;;;;;;;20.17;100.00;98713.38;5087515;28;20032;-95
2022/07/12 03:07:00;;;;;;;9.23;2.35;;;;;;;20.13;100.00;98705.56;5083644;28;20040;-96
2022/07/12 03:09:26;;;;;;;8.43;2.15;;;;;;;20.25;100.00;98703.22;5086660;28;20062;-95
2022/07/12 03:11:51;;;;;;;9.30;2.42;;;;;;;20.11;100.00;98701.25;5085732;28;20106;-96
2022/07/12 03:14:18;;;;;;;7.75;2.28;;;;;;;20.06;100.00;98688.25;5085664;28;20024;-96
2022/07/12 03:16:43;;;;;;;9.93;2.47;;;;;;;20.23;100.00;98690.06;5087562;28;20118;-95
2022/07/12 03:19:09;;;;;;;6.65;1.88;;;;;;;20.25;100.00;98690.88;5084731;28;20168;-96
2022/07/12 03:21:35;;;;;;;7.57;2.13;;;;;;;20.18;100.00;98688.59;5084634;28;20578;-96
2022/07/12 03:24:00;;;;;;;8.63;2.10;;;;;;;20.21;100.00;98699.00;5085682;28;20048;-96
2022/07/12 03:26:26;;;;;;;7.20;2.30;;;;;;;20.10;100.00;98697.78;5082741;28;20070;-95
2022/07/12 03:28:51;;;;;;;6.50;2.00;;;;;;;20.06;100.00;98690.91;5079996;28;20026;-96
2022/07/12 03:31:17;;;;;;;8.85;2.20;;;;;;;20.00;100.00;98700.94;5081974;28;20028;-96
2022/07/12 03:33:42;;;;;;;7.95;2.15;;;;;;;19.87;100.00;98695.38;5113315;27;20032;-95
2022/07/12 03:36:14;;;;;;;8.57;2.30;;;;;;;19.95;100.00;98699.38;5082124;28;20037;-96
2022/07/12 03:38:40;;;;;;;8.13;2.13;;;;;;;19.97;100.00;98706.38;5087688;28;20020;-96
2022/07/12 03:41:05;;;;;;;7.55;2.20;;;;;;;19.94;100.00;98699.44;5091899;28;20070;-96
2022/07/12 03:43:32;;;;;;;6.47;2.00;;;;;;;19.89;100.00;98697.03;5091533;28;20031;-95
2022/07/12 03:45:57;;;;;;;8.30;2.05;;;;;;;20.02;100.00;98694.63;5091446;28;20033;-96
2022/07/12 03:48:31;;;;;;;11.30;2.25;;;;;;;20.11;100.00;98686.25;5092513;28;20047;-96
2022/07/12 03:50:56;;;;;;;8.65;2.13;;;;;;;20.15;100.00;98688.75;5092845;28;22007;-96
2022/07/12 03:53:23;;;;;;;6.30;1.88;;;;;;;20.02;100.00;98688.50;5089881;28;20034;-95
2022/07/12 03:55:49;;;;;;;7.85;2.20;;;;;;;19.98;100.00;98679.84;5089696;28;20055;-96
2022/07/12 03:58:15;;;;;;;8.25;1.95;;;;;;;19.99;100.00;98673.63;5090135;28;20024;-94
2022/07/12 04:00:42;;;;;;;6.13;2.08;;;;;;;20.05;100.00;98683.03;5092573;28;21913;-96
2022/07/12 04:03:11;;;;;;;7.65;1.75;;;;;;;20.04;100.00;98670.72;5096102;28;20020;-96
2022/07/12 04:05:40;;;;;;;8.60;1.80;;;;;;;20.02;100.00;98670.81;5093949;28;20044;-95
2022/07/12 04:08:08;;;;;;;6.70;1.75;;;;;;;20.19;100.00;98659.38;5094387;28;20036;-96
2022/07/12 04:10:40;;;;;;;6.95;1.80;;;;;;;20.08;100.00;98657.28;5093201;28;20040;-96
2022/07/12 04:13:05;;;;;;;6.72;1.70;;;;;;;20.08;100.00;98667.00;5119983;27;20028;-96
2022/07/12 04:15:31;;;;;;;9.48;1.80;;;;;;;19.94;100.00;98665.91;5092375;28;20031;-96
2022/07/12 04:17:57;;;;;;;7.82;1.90;;;;;;;19.97;100.00;98664.88;5096333;28;20035;-96
2022/07/12 04:20:23;;;;;;;10.10;2.28;;;;;;;19.96;100.00;98668.47;5094100;28;20081;-95
2022/07/12 04:22:48;;;;;;;7.57;1.80;;;;;;;19.98;100.00;98656.00;5094638;28;20946;-96
2022/07/12 04:25:14;;;;;;;7.45;1.90;;;;;;;19.85;100.00;98649.63;5091395;28;20031;-95
2022/07/12 04:27:40;;;;;;;7.25;1.90;;;;;;;21.37;100.00;98651.50;5091535;28;20012;-96
2022/07/12 04:30:08;;;;;;;6.15;2.15;;;;;;;19.80;100.00;98644.53;5093951;28;20042;-96
2022/07/12 04:32:34;;;;;;;6.40;1.90;;;;;;;19.83;100.00;98644.38;5088824;28;20036;-96
2022/07/12 04:34:59;;;;;;;7.70;2.13;;;;;;;19.87;100.00;98635.34;5114470;28;20111;-96
2022/07/12 04:37:25;;;;;;;5.72;1.80;;;;;;;19.85;100.00;98646.97;5099200;28;20087;-96
2022/07/12 04:39:50;;;;;;;6.97;2.28;;;;;;;19.86;100.00;98651.31;5087174;28;20020;-96
2022/07/12 04:42:16;;;;;;;6.22;1.60;;;;;;;19.87;100.00;98640.66;5097243;28;20453;-96
2022/07/12 04:44:54;;;;;;;5.85;1.60;;;;;;;19.84;100.00;98645.25;5086965;28;20024;-96
2022/07/12 04:47:21;;;;;;;7.97;2.13;;;;;;;19.90;100.00;98655.53;5091801;28;20126;-96
2022/07/12 04:49:46;;;;;;;6.97;2.13;;;;;;;19.90;100.00;98666.13;5099686;28;20024;-96
2022/07/12 04:52:12;;;;;;;7.35;2.10;;;;;;;19.84;100.00;98655.84;5084762;28;20476;-96
2022/07/12 04:54:40;;;;;;;8.10;1.98;;;;;;;19.75;100.00;98668.56;5096099;28;20066;-96
2022/07/12 04:57:10;;;;;;;9.15;2.00;;;;;;;19.73;100.00;98678.34;5096099;28;20379;-96
2022/07/12 04:59:37;;;;;;;7.32;2.08;;;;;;;19.58;100.00;98682.59;5101103;28;20040;-96
2022/07/12 05:02:04;;;;;;;10.32;1.73;;;;;;;19.64;100.00;98685.84;5093036;28;20122;-95
2022/07/12 05:04:36;;;;;;;10.30;1.90;;;;;;;21.34;100.00;98698.56;5078464;28;20028;-96
2022/07/12 05:07:02;;;;;;;7.60;1.70;;;;;;;20.25;100.00;98687.34;5087019;28;20036;-96
2022/07/12 05:09:28;;;;;;;6.93;1.48;;;;;;;20.90;100.00;98684.09;5095937;28;20035;-96
2022/07/12 05:11:54;;;;;;;5.50;1.50;;;;;;;19.88;100.00;98699.75;5100463;28;20616;-96
2022/07/12 05:14:19;;;;;;;5.97;1.65;;;;;;;19.81;100.00;98687.75;5094382;28;20028;-96
2022/07/12 05:16:46;;;;;;;7.50;1.70;;;;;;;19.75;100.00;98665.91;5091796;28;20099;-96
2022/07/12 05:19:21;;;;;;;7.32;1.63;;;;;;;19.78;100.00;98662.25;5123165;27;20028;-96
2022/07/12 05:21:46;;;;;;;6.68;1.83;;;;;;;19.86;100.00;98665.44;5095947;28;20034;-96
2022/07/12 05:24:12;;;;;;;6.00;1.80;;;;;;;19.82;100.00;98662.97;5127755;27;20183;-96
2022/07/12 05:26:38;;;;;;;6.93;1.67;;;;;;;19.80;100.00;98665.72;5093381;28;20028;-96
2022/07/12 05:29:03;;;;;;;6.93;1.60;;;;;;;19.87;100.00;98675.06;5090101;28;20028;-96
2022/07/12 05:31:30;;;;;;;7.97;1.83;;;;;;;19.85;100.00;98687.53;5092231;28;20045;-96
2022/07/12 05:33:56;;;;;;;4.65;1.30;;;;;;;19.94;100.00;98684.44;5094677;28;20028;-96
2022/07/12 05:36:24;;;;;;;6.43;1.65;;;;;;;19.89;100.00;98678.50;5094281;28;20039;-96
2022/07/12 05:38:59;;;;;;;5.68;1.42;;;;;;;19.94;100.00;98696.78;5092148;28;20023;-96
2022/07/12 05:41:24;;;;;;;6.93;1.40;;;;;;;19.86;100.00;98694.53;5088623;28;20029;-96
2022/07/12 05:43:50;;;;;;;6.90;1.60;;;;;;;20.01;100.00;98686.78;5090557;28;20047;-96
2022/07/12 05:46:15;;;;;;;8.13;1.60;;;;;;;20.00;100.00;98671.81;5095030;28;20039;-96
2022/07/12 05:48:41;;;;;;;7.15;1.45;;;;;;;19.99;100.00;98680.72;5083056;28;20054;-96
2022/07/12 05:53:59;;;;;;;7.47;1.52;;;;;;;19.96;100.00;98671.13;5092514;28;20043;-96
2022/07/12 05:56:28;;;;;;;4.60;1.40;;;;;;;19.94;100.00;98663.25;5093472;28;20028;-96
2022/07/12 05:58:54;;;;;;;7.88;1.60;;;;;;;20.10;100.00;98691.63;5102926;28;20012;-96
2022/07/12 06:01:20;;;;;;;8.57;1.85;;;;;;;19.87;100.00;98685.63;5105871;28;20012;-96
2022/07/12 06:03:46;;;;;;;5.85;1.63;;;;;;;20.00;100.00;98701.81;5103112;28;20028;-96
2022/07/12 06:06:12;;;;;;;6.57;1.63;;;;;;;20.01;100.00;98697.38;5107416;28;20460;-96
2022/07/12 06:08:37;;;;;;;7.47;1.75;;;;;;;19.87;100.00;98708.63;5112137;28;20088;-96
2022/07/12 06:11:04;;;;;;;10.65;1.70;;;;;;;20.03;100.00;98719.34;5107426;28;20036;-96
2022/07/12 06:13:31;;;;;;;8.15;2.00;;;;;;;19.88;100.00;98705.88;5092937;28;20063;-96
2022/07/12 06:15:57;;;;;;;10.60;1.60;;;;;;;19.90;100.00;98701.41;5106514;28;20056;-96
2022/07/12 06:18:28;;;;;;;11.55;1.55;;;;;;;19.82;100.00;98703.56;5102164;28;20065;-96
2022/07/12 06:20:54;;;;;;;9.13;1.98;;;;;;;19.90;100.00;98711.09;5106388;28;20036;-96
2022/07/12 06:23:19;;;;;;;7.15;1.80;;;;;;;19.97;100.00;98704.59;5086658;28;20034;-96
2022/07/12 06:26:05;;;;;;;7.68;1.75;;;;;;;20.08;100.00;98712.00;5082737;28;20024;-96
2022/07/12 06:28:33;;;;;;;6.75;1.50;;;;;;;19.92;100.00;98706.63;5085250;28;20024;-96
2022/07/12 07:01:01;;;;;;;7.20;1.75;;;;;;;20.07;100.00;98713.81;5071520;28;20036;-96
2022/07/12 07:03:31;;;;;;;6.78;1.65;;;;;;;20.42;100.00;98720.94;5086400;22;20053;-96
2022/07/12 07:16:15;;;;;;;7.83;1.70;;;;;;;19.93;100.00;98717.13;5044036;28;20079;-96
2022/07/12 07:18:58;;;;;;;7.57;1.85;;;;;;;19.88;100.00;98715.63;5067250;22;20318;-96
2022/07/12 07:21:26;;;;;;;;;;;;;;;20.45;100.00;98720.78;5048009;28;20100;-96
2022/07/12 07:23:58;;;;;;;9.00;1.70;;;;;;;20.40;100.00;98715.75;5045592;28;19913;-96
2022/07/12 07:26:24;;;;;;;6.95;1.58;;;;;;;20.52;100.00;98724.00;5044922;28;20118;-96
2022/07/12 07:31:35;;;;;;;8.05;1.70;;;;;;;20.16;100.00;98725.72;5032006;28;20091;-94
2022/07/12 07:34:01;;;;;;;6.82;1.48;;;;;;;20.52;100.00;98739.88;5034232;28;20026;-96
2022/07/12 07:36:35;;;;;;;8.13;1.58;;;;;;;20.49;100.00;98738.25;5033244;28;20041;-96
2022/07/12 07:39:03;;;;;;;6.90;1.80;;;;;;;20.55;100.00;98729.97;5028056;28;20030;-96
2022/07/12 07:41:29;;;;;;;7.43;1.38;;;;;;;20.75;100.00;98738.75;5038392;28;20061;-96
2022/07/12 07:44:04;;;;;;;7.32;1.58;;;;;;;20.58;100.00;98744.88;5034738;28;20022;-96
2022/07/12 07:46:29;;;;;;;6.15;1.40;;;;;;;20.66;100.00;98736.53;5044432;28;20119;-96
2022/07/12 07:49:29;;;;;;;6.97;1.80;;;;;;;20.63;100.00;98743.69;5047966;28;20079;-96
2022/07/12 07:51:55;;;;;;;7.55;1.90;;;;;;;20.52;100.00;98746.03;5038103;28;20100;-96
2022/07/12 07:54:24;;;;;;;5.28;1.40;;;;;;;20.36;100.00;98729.19;5041716;28;20048;-95
2022/07/12 07:56:53;;;;;;;6.40;1.80;;;;;;;20.18;100.00;98737.13;5046172;28;20038;-96
2022/07/12 07:59:24;;;;;;;6.70;1.50;;;;;;;20.38;100.00;98744.06;5044941;28;20133;-96
2022/07/12 08:01:53;;;;;;;6.88;1.58;;;;;;;20.33;100.00;98740.78;5065693;28;20029;-96
2022/07/12 08:04:27;;;;;;;9.45;1.85;;;;;;;20.25;100.00;98749.13;5058274;23;20050;-96
2022/07/12 08:06:56;;;;;;;6.45;1.58;;;;;;;20.25;100.00;98751.78;4995498;28;20045;-96
2022/07/12 08:10:11;;;;;;;6.78;1.67;;;;;;;20.26;100.00;98742.91;5021106;28;20033;-96
2022/07/12 08:12:41;;;;;;;7.43;1.50;;;;;;;20.23;100.00;98756.28;4988895;28;20043;-96
2022/07/12 08:16:01;;;;;;;8.27;1.55;;;;;;;20.18;100.00;98766.25;4980578;28;20102;-96
2022/07/12 08:38:53;;;;;;;7.72;1.88;;;;;;;20.54;100.00;98802.47;787020;22;20332;-96
2022/07/12 09:36:15;;;;;;;6.68;1.80;;;;;;;20.91;100.00;98831.59;5051724;28;20328;-96
2022/07/12 09:39:02;;;;;;;7.03;1.83;;;;;;;20.81;100.00;98820.59;5047796;28;20028;-95
2022/07/12 09:41:31;;;;;;;6.20;1.50;;;;;;;20.91;100.00;98827.16;5056513;28;20035;-96
2022/07/12 09:43:59;;;;;;;6.93;1.50;;;;;;;21.07;100.00;98821.06;5049131;28;20045;-95
2022/07/12 09:46:25;;;;;;;8.05;1.70;;;;;;;21.36;100.00;98831.97;5055536;28;20037;-96
2022/07/12 09:48:51;;;;;;;6.18;1.50;;;;;;;21.21;100.00;98823.88;5048136;28;20063;-95
2022/07/12 09:51:20;;;;;;;6.00;1.73;;;;;;;21.23;100.00;98819.34;5045681;28;20070;-95
2022/07/12 09:53:48;;;;;;;8.27;1.63;;;;;;;21.04;100.00;98826.53;5047201;28;20057;-95
2022/07/12 09:56:24;;;;;;;6.60;1.63;;;;;;;21.25;100.00;98827.22;5048705;28;20084;-96
2022/07/12 10:03:03;;;;;;;4.95;1.50;;;;;;;21.58;100.00;98831.72;5043811;28;20028;-96
2022/07/12 10:09:27;;;;;;;6.10;1.70;;;;;;;21.75;100.00;98854.72;1881949;22;20323;-93
2022/07/12 10:12:23;;;;;;;11.00;1.60;;;;;;;21.66;100.00;98832.19;5065207;28;20048;-96
2022/07/12 10:28:14;;;;;;;9.43;1.85;;;;;;;20.84;100.00;98857.56;731959;22;20294;-95
2022/07/12 10:30:48;;;;;;;6.57;1.73;;;;;;;21.09;100.00;98851.03;5048290;28;20113;-96
2022/07/12 10:33:20;;;;;;;6.15;1.77;;;;;;;21.25;100.00;98843.13;5054124;28;20025;-96
2022/07/12 10:36:02;;;;;;;11.23;2.05;;;;;;;21.00;100.00;98844.38;5055370;28;20024;-96
2022/07/12 10:42:08;;;;;;;5.63;1.50;;;;;;;21.28;100.00;98862.41;5043409;28;20051;-96
2022/07/12 10:44:41;;;;;;;6.03;1.50;;;;;;;21.10;100.00;98848.31;5054564;28;20032;-94
2022/07/12 10:47:14;;;;;;;;;;;;;;;21.01;100.00;98861.16;5055700;28;20037;-96
2022/07/12 10:49:52;;;;;;;6.30;1.63;;;;;;;20.90;100.00;98851.09;5057057;28;19920;-96
2022/07/12 10:52:34;;;;;;;5.72;1.60;;;;;;;20.91;100.00;98851.00;5058686;28;20164;-96
2022/07/12 10:55:04;;;;;;;7.37;1.50;;;;;;;21.04;100.00;98861.84;5057882;28;20036;-96
2022/07/12 10:57:43;;;;;;;6.50;1.75;;;;;;;21.39;100.00;98853.91;5059275;28;20025;-93
2022/07/12 11:00:38;;;;;;;5.35;1.58;;;;;;;21.21;100.00;98854.84;5059082;28;20020;-96
2022/07/12 11:03:22;;;;;;;5.68;1.50;;;;;;;21.44;100.00;98851.84;5052315;28;20073;-96
2022/07/12 11:05:51;;;;;;;8.55;1.80;;;;;;;21.65;100.00;98854.34;5061609;28;20048;-96
2022/07/12 11:09:00;;;;;;;4.43;1.35;;;;;;;21.87;100.00;98848.75;5061982;28;20047;-94
2022/07/12 11:11:45;;;;;;;7.45;1.60;;;;;;;22.62;100.00;98848.22;5059496;28;20030;-96
2022/07/12 11:14:19;;;;;;;5.80;1.40;;;;;;;22.27;100.00;98857.19;5047210;28;20135;-92
2022/07/12 11:16:47;;;;;;;6.55;1.60;;;;;;;22.77;100.00;98859.75;5049900;28;20033;-96
2022/07/12 11:19:19;;;;;;;5.88;1.67;;;;;;;23.08;100.00;98856.16;5042514;28;20163;-96
2022/07/12 11:21:45;;;;;;;6.90;1.60;;;;;;;23.73;100.00;98849.66;5053681;28;20211;-96
2022/07/12 11:24:34;;;;;;;6.15;1.50;;;;;;;23.46;100.00;98854.84;5050774;28;20475;-96
2022/07/12 11:27:05;;;;;;;8.65;1.88;;;;;;;23.81;100.00;98847.38;5050467;28;20025;-96
2022/07/12 11:29:36;;;;;;;7.85;1.90;;;;;;;22.93;100.00;98860.56;5047891;28;20378;-96
2022/07/12 11:32:11;;;;;;;6.10;1.55;;;;;;;23.76;100.00;98860.09;5050477;28;20029;-96
2022/07/12 11:34:37;;;;;;;5.55;1.55;;;;;;;23.47;100.00;98867.22;5037525;28;20473;-96
2022/07/12 11:37:12;;;;;;;6.03;1.58;;;;;;;23.05;100.00;98855.47;5047935;28;20060;-96
2022/07/12 11:39:40;;;;;;;7.28;1.60;;;;;;;23.22;100.00;98865.19;5043729;28;20032;-96
2022/07/12 11:45:09;;;;;;;8.35;1.75;;;;;;;23.31;100.00;98865.47;5025270;28;20041;-96
2022/07/12 11:47:38;;;;;;;8.60;1.80;;;;;;;23.50;100.00;98867.88;5044283;28;20032;-95
2022/07/12 11:50:10;;;;;;;7.95;1.77;;;;;;;23.61;100.00;98872.56;5053004;28;20044;-96
2022/07/12 11:52:41;;;;;;;6.47;1.65;;;;;;;24.35;100.00;98861.78;5045423;28;20028;-96
2022/07/12 11:55:47;;;;;;;6.15;1.52;;;;;;;24.60;100.00;98860.22;5043111;28;20037;-96
2022/07/12 11:58:21;;;;;;;13.45;1.95;;;;;;;24.19;100.00;98864.59;5137311;22;20057;-96
2022/07/12 12:00:50;;;;;;;6.35;1.60;;;;;;;23.85;100.00;98858.66;5051689;28;20132;-95
2022/07/12 12:03:23;;;;;;;6.18;1.40;;;;;;;23.97;100.00;98841.97;5051077;28;20111;-96
2022/07/12 12:05:55;;;;;;;6.40;1.40;;;;;;;23.86;100.00;98847.91;5052966;28;20045;-96
2022/07/12 12:08:23;;;;;;;7.25;1.75;;;;;;;23.18;100.00;98861.84;5052793;28;20021;-96
2022/07/12 12:11:09;;;;;;;7.82;1.52;;;;;;;23.14;100.00;98869.13;5057429;28;20041;-96
2022/07/12 12:14:01;;;;;;;5.88;1.60;;;;;;;23.73;100.00;98864.75;5055468;28;20036;-96
2022/07/12 12:16:33;;;;;;;4.83;1.30;;;;;;;23.25;100.00;98879.13;5052057;28;20075;-96
2022/07/12 12:19:22;;;;;;;8.07;1.58;;;;;;;23.55;100.00;98880.94;5050691;28;20056;-96
2022/07/12 12:21:49;;;;;;;5.82;1.40;;;;;;;23.50;100.00;98891.81;5047052;28;20025;-95
2022/07/12 12:24:31;;;;;;;7.25;1.70;;;;;;;23.47;100.00;98886.69;5058327;28;20025;-95
2022/07/12 12:27:21;;;;;;;6.90;1.25;;;;;;;23.60;100.00;98892.13;5058690;28;20025;-96
2022/07/12 12:29:58;;;;;;;6.10;1.63;;;;;;;23.32;100.00;98891.13;5057217;28;20044;-96
2022/07/12 12:32:42;;;;;;;6.03;1.50;;;;;;;22.57;100.00;98879.50;5057281;28;20037;-96
2022/07/12 12:35:12;;;;;;;6.43;1.45;;;;;;;22.97;100.00;98877.22;5054327;28;20037;-96
2022/07/12 12:38:17;;;;;;;6.82;1.40;;;;;;;22.95;100.00;98879.09;5051472;28;20034;-96
2022/07/12 12:41:08;;;;;;;5.47;1.55;;;;;;;23.05;100.00;98880.28;5076616;28;20021;-96
2022/07/12 13:14:12;;;;;;;5.72;1.10;;;;;;;23.25;92.38;98849.03;5039090;28;20076;-96
2022/07/12 13:16:39;;;;;;;4.97;1.50;;;;;;;24.00;86.53;98847.09;5012305;28;20042;-96
2022/07/12 13:19:15;;;;;;;6.65;1.30;;;;;;;24.26;87.54;98851.72;4987028;28;20046;-96
2022/07/12 13:21:46;;;;;;;6.55;1.20;;;;;;;25.13;85.87;98837.13;5009432;28;20112;-96
2022/07/12 13:24:12;;;;;;;7.00;1.48;;;;;;;25.45;82.95;98836.75;5007431;28;20022;-96
2022/07/12 13:26:38;;;;;;;4.93;1.27;;;;;;;25.47;76.47;98842.00;4991453;28;20536;-96
2022/07/12 13:29:13;;;;;;;5.32;1.15;;;;;;;26.10;80.07;98834.91;4991184;28;20493;-96
2022/07/12 13:31:51;;;;;;;;;;;;;;;;;;;;;
2022/07/12 13:34:20;;;;;;;6.85;1.50;;;;;;;25.72;83.30;98854.47;5014032;28;20109;-95
2022/07/12 13:36:46;;;;;;;4.90;1.50;;;;;;;25.88;80.30;98836.41;5002873;28;20041;-95
2022/07/12 13:42:06;;;;;;;8.48;1.65;;;;;;;26.23;81.94;98840.22;5020399;28;20108;-95
2022/07/12 13:44:41;;;;;;;5.47;1.60;;;;;;;25.56;81.83;98828.00;5006838;28;20053;-96
2022/07/12 13:47:09;;;;;;;5.78;1.67;;;;;;;25.68;84.07;98827.16;5011174;28;20038;-96
2022/07/12 13:49:36;;;;;;;5.15;1.48;;;;;;;26.19;84.60;98834.25;5007444;28;20030;-96
2022/07/12 13:52:05;;;;;;;6.07;1.40;;;;;;;25.98;83.28;98831.25;5003936;28;20084;-95
2022/07/12 13:54:46;;;;;;;6.30;1.60;;;;;;;26.10;85.30;98832.25;5005836;28;20036;-96
2022/07/12 13:57:21;;;;;;;7.57;1.80;;;;;;;25.42;90.78;98836.13;5009194;28;20010;-95
2022/07/12 13:59:47;;;;;;;6.10;1.60;;;;;;;25.59;90.04;98829.59;5207098;22;20066;-95
2022/07/12 14:02:13;;;;;;;9.45;1.98;;;;;;;25.44;88.42;98819.06;5075812;28;20040;-95
2022/07/12 14:04:44;;;;;;;7.68;1.88;;;;;;;25.44;93.36;98807.50;5074825;28;20009;-96
2022/07/12 14:07:11;;;;;;;7.10;1.55;;;;;;;25.87;86.25;98808.00;5077345;28;20074;-95
2022/07/12 14:09:48;;;;;;;5.13;1.33;;;;;;;25.21;91.77;98810.75;5064436;28;20476;-96
2022/07/12 14:12:34;;;;;;;5.43;1.40;;;;;;;25.46;90.95;98819.78;5077287;28;20048;-95
2022/07/12 14:15:19;;;;;;;4.88;1.48;;;;;;;25.37;82.78;98809.72;5083752;28;20035;-96
2022/07/12 14:17:52;;;;;;;6.18;1.52;;;;;;;26.64;78.93;98812.25;5057341;28;20056;-96
2022/07/12 14:20:21;;;;;;;6.60;1.45;;;;;;;26.69;78.91;98820.81;5064864;28;20087;-95
2022/07/12 14:22:50;;;;;;;4.72;1.40;;;;;;;26.91;79.59;98816.53;5063715;28;20039;-96
2022/07/12 14:25:20;;;;;;;7.78;1.80;;;;;;;26.82;76.83;98817.22;5082090;28;20026;-96
2022/07/12 14:27:52;;;;;;;4.78;1.40;;;;;;;26.75;75.80;98806.16;5066972;28;20028;-96
2022/07/12 14:30:17;;;;;;;6.85;1.30;;;;;;;25.98;71.95;98795.69;5063997;28;20492;-96
2022/07/12 14:32:51;;;;;;;5.22;1.40;;;;;;;26.25;68.11;98798.22;5065345;28;20034;-96
2022/07/12 14:35:38;;;;;;;5.80;1.42;;;;;;;25.98;71.18;98787.66;5074935;28;20059;-96
2022/07/12 14:38:21;;;;;;;5.50;1.20;;;;;;;26.51;70.32;98792.72;5077629;28;20123;-95
2022/07/12 14:41:16;;;;;;;5.93;1.50;;;;;;;26.06;73.64;98794.19;5068621;28;20040;-96
2022/07/12 14:43:42;;;;;;;4.80;1.20;;;;;;;26.37;69.43;98788.41;5076624;23;20470;-96
2022/07/12 14:46:08;;;;;;;4.10;1.17;;;;;;;26.43;70.30;98796.00;5083131;28;20115;-96
2022/07/12 14:48:35;;;;;;;6.38;1.35;;;;;;;26.57;73.90;98787.78;5089739;28;20028;-96
2022/07/12 14:51:01;;;;;;;5.05;1.30;;;;;;;26.22;63.13;98801.94;5071014;28;20096;-95